createdAt,value
2023-01-17T00:02:17.849Z,97269.84
2023-01-17T00:05:04.376Z,97273.38
2023-01-17T00:07:51.516Z,97277.50
2023-01-17T00:10:26.590Z,97275.03
2023-01-17T00:12:59.145Z,97267.59
2023-01-17T00:15:28.523Z,97274.19
2023-01-17T00:17:55.656Z,97271.69
2023-01-17T00:20:50.318Z,97274.88
2023-01-17T00:23:42.910Z,97278.25
2023-01-17T00:26:15.318Z,97276.56
2023-01-17T00:28:44.076Z,97273.38
2023-01-17T00:31:14.490Z,97277.25
2023-01-17T00:33:41.727Z,97280.66
2023-01-17T00:36:10.574Z,97283.09
2023-01-17T00:38:40.035Z,97293.53
2023-01-17T00:41:13.444Z,97294.50
2023-01-17T00:43:59.573Z,97300.19
2023-01-17T00:46:45.680Z,97302.59
2023-01-17T00:49:31.556Z,97326.31
2023-01-17T00:52:17.142Z,97310.47
2023-01-17T00:55:02.988Z,97313.78
2023-01-17T00:57:49.089Z,97310.59
2023-01-17T01:00:37.359Z,97310.59
2023-01-17T01:03:30.474Z,97320.56
2023-01-17T01:06:16.547Z,97317.41
2023-01-17T01:09:02.653Z,97312.50
2023-01-17T01:11:48.333Z,97318.44
2023-01-17T01:14:34.340Z,97311.69
2023-01-17T01:17:20.264Z,97314.28
2023-01-17T01:20:06.275Z,97307.03
2023-01-17T01:22:52.342Z,97318.34
2023-01-17T01:25:38.489Z,97320.09
2023-01-17T01:28:28.863Z,97323.19
2023-01-17T01:31:14.788Z,97328.34
2023-01-17T01:33:42.004Z,97324.94
2023-01-17T01:36:10.016Z,97319.34
2023-01-17T01:38:37.985Z,97324.97
2023-01-17T01:41:05.888Z,97333.97
2023-01-17T01:43:43.838Z,97334.31
2023-01-17T01:46:26.847Z,97335.59
2023-01-17T01:49:00.509Z,97340.72
2023-01-17T01:51:44.661Z,97336.63
2023-01-17T01:54:20.974Z,97333.84
2023-01-17T01:56:51.798Z,97337.31
2023-01-17T01:59:22.579Z,97330.38
2023-01-17T02:01:55.750Z,97340.53
2023-01-17T02:04:24.802Z,97331.47
2023-01-17T02:07:02.989Z,97341.22
2023-01-17T02:09:30.104Z,97326.22
2023-01-17T02:11:57.845Z,97339.53
2023-01-17T02:14:24.983Z,97351.13
2023-01-17T02:17:11.482Z,97352.69
2023-01-17T02:20:29.090Z,97346.59
2023-01-17T02:23:34.080Z,97349.22
2023-01-17T02:26:29.632Z,97352.72
2023-01-17T02:29:23.468Z,97352.72
2023-01-17T02:32:14.375Z,97347.72
2023-01-17T02:35:10.664Z,97340.28
2023-01-17T02:38:16.351Z,97359.31
2023-01-17T02:40:53.093Z,97365.03
2023-01-17T02:43:23.452Z,97361.59
2023-01-17T02:45:50.739Z,97362.44
2023-01-17T02:48:24.613Z,97367.53
2023-01-17T02:51:28.451Z,97373.13
2023-01-17T02:54:33.518Z,97376.47
2023-01-17T02:57:44.956Z,97370.72
2023-01-17T03:00:44.509Z,97382.06
2023-01-17T03:03:24.308Z,97397.00
2023-01-17T03:06:02.216Z,97393.63
2023-01-17T03:08:30.788Z,97396.09
2023-01-17T03:10:58.447Z,97413.44
2023-01-17T03:13:25.650Z,97405.03
2023-01-17T03:15:52.921Z,97408.38
2023-01-17T03:18:20.473Z,97419.09
2023-01-17T03:20:47.713Z,97415.78
2023-01-17T03:23:14.838Z,97429.72
2023-01-17T03:25:42.246Z,97434.59
2023-01-17T03:28:09.412Z,97431.19
2023-01-17T03:30:36.545Z,97425.44
2023-01-17T03:33:03.857Z,97431.19
2023-01-17T03:35:31.023Z,97434.56
2023-01-17T03:37:58.662Z,97442.00
2023-01-17T03:40:25.849Z,97442.75
2023-01-17T03:42:53.047Z,97447.03
2023-01-17T03:45:20.153Z,97458.56
2023-01-17T03:47:47.309Z,97465.00
2023-01-17T03:50:14.553Z,97465.94
2023-01-17T03:52:41.761Z,97473.22
2023-01-17T03:55:09.634Z,97480.66
2023-01-17T03:57:36.807Z,97475.63
2023-01-17T04:00:04.788Z,97493.06
2023-01-17T04:02:31.991Z,97492.03
2023-01-17T04:04:59.166Z,97490.63
2023-01-17T04:07:26.401Z,97497.25
2023-01-17T04:09:54.537Z,97498.91
2023-01-17T04:12:21.699Z,97498.91
2023-01-17T04:14:48.818Z,97496.34
2023-01-17T04:17:19.292Z,97506.22
2023-01-17T04:19:46.969Z,97498.03
2023-01-17T04:22:14.319Z,97502.25
2023-01-17T04:24:41.463Z,97494.06
2023-01-17T04:27:09.070Z,97500.47
2023-01-17T04:29:36.266Z,97505.53
2023-01-17T04:32:03.530Z,97507.22
2023-01-17T04:34:30.794Z,97508.00
2023-01-17T04:36:57.963Z,97516.97
2023-01-17T04:39:25.065Z,97508.81
2023-01-17T04:41:52.343Z,97522.09
2023-01-17T04:44:19.513Z,97527.09
2023-01-17T04:46:46.635Z,97523.03
2023-01-17T04:49:13.767Z,97528.03
2023-01-17T04:51:40.914Z,97511.50
2023-01-17T04:54:08.036Z,97523.09
2023-01-17T04:56:35.125Z,97527.31
2023-01-17T04:59:02.254Z,97517.44
2023-01-17T05:01:29.481Z,97524.91
2023-01-17T05:03:56.642Z,97534.97
2023-01-17T05:06:23.796Z,97531.34
2023-01-17T05:08:50.907Z,97525.00
2023-01-17T05:11:18.026Z,97525.63
2023-01-17T05:13:48.376Z,97544.56
2023-01-17T05:16:19.381Z,97540.34
2023-01-17T05:18:46.518Z,97536.16
2023-01-17T05:21:13.652Z,97541.88
2023-01-17T05:23:42.545Z,97555.09
2023-01-17T05:26:09.636Z,97560.84
2023-01-17T05:28:37.044Z,97565.81
2023-01-17T05:31:04.651Z,97565.00
2023-01-17T05:33:31.908Z,97566.53
2023-01-17T05:35:59.139Z,97569.88
2023-01-17T05:38:26.435Z,97562.44
2023-01-17T05:40:53.542Z,97571.66
2023-01-17T05:43:22.220Z,97583.88
2023-01-17T05:45:49.936Z,97580.47
2023-01-17T05:48:17.174Z,97592.81
2023-01-17T05:50:44.330Z,97578.56
2023-01-17T05:53:14.748Z,97580.31
2023-01-17T05:55:42.572Z,97598.31
2023-01-17T05:58:19.667Z,97597.34
2023-01-17T06:00:47.837Z,97614.28
2023-01-17T06:03:16.082Z,97619.28
2023-01-17T06:05:44.789Z,97630.19
2023-01-17T06:08:12.091Z,97644.34
2023-01-17T06:10:39.522Z,97660.03
2023-01-17T06:13:10.561Z,97654.84
2023-01-17T06:15:39.084Z,97663.88
2023-01-17T06:18:10.281Z,97672.66
2023-01-17T06:20:38.389Z,97681.72
2023-01-17T06:23:10.575Z,97684.84
2023-01-17T06:25:45.871Z,97696.22
2023-01-17T06:28:16.499Z,97704.44
2023-01-17T06:30:44.556Z,97705.91
2023-01-17T06:33:13.019Z,97718.78
2023-01-17T06:35:43.058Z,97727.09
2023-01-17T06:38:10.492Z,97737.72
2023-01-17T06:40:37.639Z,97741.56
2023-01-17T06:43:05.789Z,97747.44
2023-01-17T06:45:35.462Z,97750.53
2023-01-17T06:48:05.073Z,97760.34
2023-01-17T06:50:34.133Z,97772.59
2023-01-17T06:53:05.149Z,97771.97
2023-01-17T06:55:34.204Z,97786.53
2023-01-17T06:58:02.804Z,97786.38
2023-01-17T07:00:35.095Z,97790.63
2023-01-17T07:03:03.071Z,97798.31
2023-01-17T07:05:30.413Z,97794.72
2023-01-17T07:07:57.910Z,97803.16
2023-01-17T07:10:25.080Z,97807.31
2023-01-17T07:12:59.618Z,97822.38
2023-01-17T07:15:26.760Z,97828.09
2023-01-17T07:17:53.886Z,97832.47
2023-01-17T07:20:21.051Z,97828.44
2023-01-17T07:22:48.172Z,97835.44
2023-01-17T07:25:15.430Z,97843.81
2023-01-17T07:27:42.543Z,97858.28
2023-01-17T07:30:10.694Z,97858.50
2023-01-17T07:32:38.342Z,97868.47
2023-01-17T07:35:06.850Z,97864.34
2023-01-17T07:37:33.948Z,97863.44
2023-01-17T07:40:02.462Z,97874.19
2023-01-17T07:42:29.958Z,97874.28
2023-01-17T07:44:57.134Z,97878.97
2023-01-17T07:47:24.848Z,97884.50
2023-01-17T07:49:52.013Z,97890.03
2023-01-17T07:52:19.147Z,97893.31
2023-01-17T07:54:46.271Z,97900.72
2023-01-17T07:57:13.411Z,97906.63
2023-01-17T07:59:40.548Z,97909.56
2023-01-17T08:02:17.683Z,97918.56
2023-01-17T08:04:45.374Z,97911.19
2023-01-17T08:07:13.890Z,97921.59
2023-01-17T08:09:42.661Z,97917.56
2023-01-17T08:12:11.007Z,97925.81
2023-01-17T08:14:38.861Z,97926.69
2023-01-17T08:17:17.284Z,97931.94
2023-01-17T08:19:45.357Z,97940.03
2023-01-17T08:22:13.415Z,97940.22
2023-01-17T08:24:42.098Z,97936.88
2023-01-17T08:27:10.484Z,97939.53
2023-01-17T08:29:41.485Z,97955.28
2023-01-17T08:32:09.520Z,97956.78
2023-01-17T08:34:37.724Z,97956.00
2023-01-17T08:37:05.509Z,97961.91
2023-01-17T08:39:33.396Z,97968.16
2023-01-17T08:42:00.808Z,97976.59
2023-01-17T08:44:28.716Z,97981.66
2023-01-17T08:46:56.384Z,97977.63
2023-01-17T08:49:24.856Z,97980.25
2023-01-17T08:51:52.753Z,97985.25
2023-01-17T08:54:20.191Z,97985.94
2023-01-17T08:56:47.699Z,97998.97
2023-01-17T08:59:15.630Z,98005.63
2023-01-17T09:01:46.338Z,97998.88
2023-01-17T09:04:15.165Z,98008.63
2023-01-17T09:06:47.492Z,98001.75
2023-01-17T09:09:17.947Z,98010.25
2023-01-17T09:11:45.565Z,98013.28
2023-01-17T09:14:14.469Z,98028.63
2023-01-17T09:16:42.129Z,98021.22
2023-01-17T09:19:10.468Z,98036.31
2023-01-17T09:21:37.726Z,98043.06
2023-01-17T09:24:05.025Z,98038.13
2023-01-17T09:26:32.196Z,98048.72
2023-01-17T09:28:59.379Z,98053.50
2023-01-17T09:31:27.469Z,98054.25
2023-01-17T09:33:56.217Z,98047.50
2023-01-17T09:36:24.313Z,98055.06
2023-01-17T09:38:57.834Z,98065.69
2023-01-17T09:42:02.800Z,98069.19
2023-01-17T09:44:41.739Z,98071.84
2023-01-17T09:48:01.160Z,98062.25
2023-01-17T09:50:43.803Z,98068.66
2023-01-17T09:53:20.721Z,98069.88
2023-01-17T09:56:00.876Z,98068.34
2023-01-17T09:58:47.861Z,98074.41
2023-01-17T10:01:35.850Z,98066.91
2023-01-17T10:04:44.904Z,98072.06
2023-01-17T10:07:33.265Z,98061.59
2023-01-17T10:10:26.861Z,98060.88
2023-01-17T10:13:18.316Z,98059.38
2023-01-17T10:16:18.074Z,98069.19
2023-01-17T10:19:17.072Z,98081.19
2023-01-17T10:21:55.154Z,98072.25
2023-01-17T10:25:05.461Z,98076.13
2023-01-17T10:27:39.810Z,98072.91
2023-01-17T10:31:28.210Z,98082.13
2023-01-17T10:34:15.225Z,98070.53
2023-01-17T10:36:56.014Z,98073.06
2023-01-17T10:39:29.115Z,98076.09
2023-01-17T10:42:50.381Z,98080.81
2023-01-17T10:45:31.484Z,98074.78
2023-01-17T10:48:23.278Z,98082.00
2023-01-17T10:51:13.038Z,98100.63
2023-01-17T10:54:40.395Z,98085.78
2023-01-17T10:57:18.849Z,98087.28
2023-01-17T10:59:47.159Z,98088.97
2023-01-17T11:02:28.938Z,98091.97
2023-01-17T11:05:02.590Z,98092.50
2023-01-17T11:07:30.215Z,98090.97
2023-01-17T11:09:58.961Z,98090.59
2023-01-17T11:12:33.624Z,98089.50
2023-01-17T11:15:06.833Z,98096.63
2023-01-17T11:17:40.148Z,98094.50
2023-01-17T11:20:23.661Z,98099.09
2023-01-17T11:23:24.062Z,98092.22
2023-01-17T11:25:58.445Z,98091.66
2023-01-17T11:28:33.384Z,98105.03
2023-01-17T11:31:25.952Z,98098.34
2023-01-17T11:34:14.202Z,98099.75
2023-01-17T11:36:43.402Z,98109.38
2023-01-17T11:39:19.873Z,98097.19
2023-01-17T11:41:48.651Z,98107.41
2023-01-17T11:44:33.725Z,98107.56
2023-01-17T11:47:12.818Z,98109.28
2023-01-17T11:49:43.903Z,98112.00
2023-01-17T11:52:18.761Z,98115.47
2023-01-17T11:54:48.626Z,98120.56
2023-01-17T11:57:32.891Z,98121.16
2023-01-17T12:00:34.556Z,98134.84
2023-01-17T12:03:24.860Z,98119.41
2023-01-17T12:06:59.558Z,98120.66
2023-01-17T12:09:45.271Z,98121.50
2023-01-17T12:12:55.151Z,98106.97
2023-01-17T12:15:55.162Z,98105.13
2023-01-17T12:18:49.890Z,98100.66
2023-01-17T12:21:25.609Z,98099.31
2023-01-17T12:24:45.516Z,98105.50
2023-01-17T12:27:30.633Z,98099.28
2023-01-17T12:30:16.310Z,98108.94
2023-01-17T12:33:34.512Z,98116.94
2023-01-17T12:36:18.556Z,98118.03
2023-01-17T12:38:48.451Z,98131.31
2023-01-17T12:41:23.747Z,98119.31
2023-01-17T12:43:57.633Z,98132.75
2023-01-17T12:46:38.707Z,98129.22
2023-01-17T12:49:38.940Z,98140.06
2023-01-17T12:52:57.874Z,98136.50
2023-01-17T12:56:06.707Z,98143.41
2023-01-17T12:58:42.485Z,98146.16
2023-01-17T13:01:28.649Z,98135.47
2023-01-17T13:04:21.035Z,98150.00
2023-01-17T13:07:22.637Z,98150.75
2023-01-17T13:10:08.132Z,98154.56
2023-01-17T13:12:39.203Z,98149.94
2023-01-17T13:15:22.773Z,98152.63
2023-01-17T13:17:59.276Z,98151.06
2023-01-17T13:20:36.516Z,98157.03
2023-01-17T13:23:28.341Z,98172.66
2023-01-17T13:25:58.916Z,98167.69
2023-01-17T13:28:55.860Z,98173.63
2023-01-17T13:31:44.474Z,98173.47
2023-01-17T13:34:43.593Z,98171.59
2023-01-17T13:38:06.996Z,98175.66
2023-01-17T13:40:48.914Z,98185.53
2023-01-17T13:43:26.141Z,98184.78
2023-01-17T13:45:57.601Z,98180.72
2023-01-17T13:48:28.613Z,98181.53
2023-01-17T13:51:02.698Z,98187.44
2023-01-17T13:53:39.518Z,98193.13
2023-01-17T13:56:18.792Z,98194.81
2023-01-17T13:58:54.326Z,98206.66
2023-01-17T14:01:24.660Z,98204.78
2023-01-17T14:03:54.695Z,98192.91
2023-01-17T14:06:44.966Z,98205.75
2023-01-17T14:09:27.994Z,98205.75
2023-01-17T14:11:59.319Z,98213.31
2023-01-17T14:14:44.425Z,98217.38
2023-01-17T14:17:25.617Z,98226.13
2023-01-17T14:20:00.127Z,98221.63
2023-01-17T14:22:34.644Z,98228.72
2023-01-17T14:25:02.926Z,98227.97
2023-01-17T14:27:38.059Z,98247.91
2023-01-17T14:30:20.422Z,98244.38
2023-01-17T14:33:00.820Z,98249.78
2023-01-17T14:35:39.438Z,98250.88
2023-01-17T14:38:25.166Z,98252.50
2023-01-17T14:41:22.091Z,98261.69
2023-01-17T14:43:51.348Z,98255.81
2023-01-17T14:46:32.208Z,98261.97
2023-01-17T14:49:03.872Z,98265.44
2023-01-17T14:51:34.989Z,98264.34
2023-01-17T14:54:17.226Z,98263.59
2023-01-17T14:56:44.647Z,98267.53
2023-01-17T14:59:22.013Z,98268.56
2023-01-17T15:02:07.274Z,98279.84
2023-01-17T15:04:39.323Z,98265.34
2023-01-17T15:07:15.688Z,98273.47
2023-01-17T15:09:44.473Z,98270.84
2023-01-17T15:12:15.879Z,98265.13
2023-01-17T15:14:46.442Z,98277.28
2023-01-17T15:17:27.338Z,98272.53
2023-01-17T15:20:06.453Z,98282.84
2023-01-17T15:22:34.643Z,98286.19
2023-01-17T15:25:02.842Z,98290.03
2023-01-17T15:27:30.420Z,98289.38
2023-01-17T15:30:02.066Z,98283.47
2023-01-17T15:32:31.682Z,98292.34
2023-01-17T15:35:02.362Z,98283.22
2023-01-17T15:37:34.352Z,98291.34
2023-01-17T15:40:24.151Z,98288.72
2023-01-17T15:42:59.230Z,98294.03
2023-01-17T15:45:32.423Z,98285.41
2023-01-17T15:48:39.212Z,98290.88
2023-01-17T15:51:09.003Z,98294.19
2023-01-17T15:53:40.975Z,98290.22
2023-01-17T15:56:33.448Z,98296.25
2023-01-17T15:59:32.269Z,98300.22
2023-01-17T16:01:59.407Z,98308.34
2023-01-17T16:04:32.984Z,98305.72
2023-01-17T16:07:30.227Z,98305.22
2023-01-17T16:10:13.837Z,98306.09
2023-01-17T16:12:41.360Z,98312.03
2023-01-17T16:15:12.835Z,98307.56
2023-01-17T16:17:45.436Z,98312.81
2023-01-17T16:20:20.333Z,98310.78
2023-01-17T16:22:49.285Z,98315.16
2023-01-17T16:25:20.499Z,98308.44
2023-01-17T16:27:48.259Z,98313.25
2023-01-17T16:30:20.061Z,98313.59
2023-01-17T16:32:49.040Z,98311.22
2023-01-17T16:35:31.706Z,98321.44
2023-01-17T16:38:09.763Z,98322.88
2023-01-17T16:40:46.284Z,98335.06
2023-01-17T16:43:17.111Z,98337.31
2023-01-17T16:45:52.724Z,98339.44
2023-01-17T16:48:21.178Z,98330.84
2023-01-17T16:50:52.247Z,98334.84
2023-01-17T16:53:28.559Z,98336.44
2023-01-17T16:56:05.369Z,98341.03
2023-01-17T16:58:32.507Z,98345.69
2023-01-17T17:01:00.267Z,98340.97
2023-01-17T17:03:27.519Z,98338.66
2023-01-17T17:06:01.312Z,98346.16
2023-01-17T17:08:29.364Z,98332.28
2023-01-17T17:11:13.135Z,98337.06
2023-01-17T17:13:43.012Z,98349.31
2023-01-17T17:16:14.891Z,98350.38
2023-01-17T17:18:43.545Z,98349.59
2023-01-17T17:21:10.806Z,98356.31
2023-01-17T17:23:37.943Z,98359.78
2023-01-17T17:26:05.805Z,98368.50
2023-01-17T17:28:33.018Z,98366.84
2023-01-17T17:31:07.945Z,98371.00
2023-01-17T17:33:35.258Z,98377.78
2023-01-17T17:36:09.945Z,98377.41
2023-01-17T17:38:50.990Z,98379.00
2023-01-17T17:41:21.540Z,98377.28
2023-01-17T17:43:49.976Z,98389.13
2023-01-17T17:46:17.700Z,98382.34
2023-01-17T17:48:45.731Z,98395.06
2023-01-17T17:51:33.176Z,98397.53
2023-01-17T17:54:09.661Z,98407.41
2023-01-17T17:56:38.493Z,98405.03
2023-01-17T17:59:08.975Z,98407.88
2023-01-17T18:01:40.830Z,98417.41
2023-01-17T18:04:09.122Z,98414.81
2023-01-17T18:06:36.744Z,98403.72
2023-01-17T18:09:05.726Z,98411.91
2023-01-17T18:11:34.416Z,98409.88
2023-01-17T18:14:04.461Z,98407.59
2023-01-17T18:16:35.549Z,98408.44
2023-01-17T18:19:04.690Z,98405.59
2023-01-17T18:21:36.472Z,98395.16
2023-01-17T18:24:10.461Z,98400.09
2023-01-17T18:26:52.644Z,98394.06
2023-01-17T18:29:22.013Z,98403.06
2023-01-17T18:31:52.149Z,98409.22
2023-01-17T18:34:24.388Z,98413.53
2023-01-17T18:36:52.419Z,98416.72
2023-01-17T18:39:29.197Z,98421.34
2023-01-17T18:41:56.495Z,98416.63
2023-01-17T18:44:24.557Z,98427.47
2023-01-17T18:46:54.576Z,98423.88
2023-01-17T18:49:22.066Z,98426.84
2023-01-17T18:51:51.106Z,98425.13
2023-01-17T18:54:19.823Z,98430.56
2023-01-17T18:56:47.177Z,98433.91
2023-01-17T18:59:19.556Z,98429.50
2023-01-17T19:01:47.356Z,98434.94
2023-01-17T19:04:17.335Z,98439.56
2023-01-17T19:06:48.544Z,98434.22
2023-01-17T19:09:16.760Z,98447.03
2023-01-17T19:11:45.012Z,98438.88
2023-01-17T19:14:13.885Z,98446.81
2023-01-17T19:16:42.762Z,98440.94
2023-01-17T19:19:14.006Z,98443.25
2023-01-17T19:21:41.659Z,98435.13
2023-01-17T19:24:13.030Z,98437.75
2023-01-17T19:26:41.163Z,98449.22
2023-01-17T19:29:08.465Z,98451.59
2023-01-17T19:31:42.236Z,98451.84
2023-01-17T19:34:10.564Z,98457.34
2023-01-17T19:36:38.842Z,98460.88
2023-01-17T19:39:09.425Z,98453.19
2023-01-17T19:41:43.126Z,98445.72
2023-01-17T19:44:12.732Z,98442.91
2023-01-17T19:46:40.191Z,98443.16
2023-01-17T19:49:09.005Z,98441.81
2023-01-17T19:51:36.716Z,98444.28
2023-01-17T19:54:06.307Z,98446.97
2023-01-17T19:56:37.017Z,98450.25
2023-01-17T19:59:04.207Z,98439.06
2023-01-17T20:01:33.896Z,98447.88
2023-01-17T20:04:02.998Z,98451.13
2023-01-17T20:06:35.541Z,98465.59
2023-01-17T20:09:05.122Z,98471.53
2023-01-17T20:11:32.251Z,98486.97
2023-01-17T20:14:00.216Z,98483.59
2023-01-17T20:16:31.705Z,98484.38
2023-01-17T20:19:00.163Z,98479.44
2023-01-17T20:21:29.832Z,98483.22
2023-01-17T20:23:59.391Z,98482.34
2023-01-17T20:26:34.796Z,98479.25
2023-01-17T20:29:10.133Z,98484.91
2023-01-17T20:31:39.742Z,98492.53
2023-01-17T20:34:09.869Z,98493.44
2023-01-17T20:36:37.913Z,98499.56
2023-01-17T20:39:07.966Z,98505.53
2023-01-17T20:41:41.421Z,98509.34
2023-01-17T20:44:14.735Z,98507.66
2023-01-17T20:46:42.668Z,98518.38
2023-01-17T20:49:18.683Z,98527.19
2023-01-17T20:51:47.307Z,98524.81
2023-01-17T20:54:18.327Z,98524.84
2023-01-17T20:56:49.545Z,98533.19
2023-01-17T20:59:21.485Z,98528.16
2023-01-17T21:01:49.627Z,98528.41
2023-01-17T21:04:20.025Z,98530.88
2023-01-17T21:06:47.473Z,98527.69
2023-01-17T21:09:15.263Z,98523.34
2023-01-17T21:11:42.464Z,98530.81
2023-01-17T21:14:09.720Z,98522.47
2023-01-17T21:16:37.051Z,98527.00
2023-01-17T21:19:05.179Z,98527.72
2023-01-17T21:21:32.402Z,98533.91
2023-01-17T21:23:59.923Z,98538.50
2023-01-17T21:26:28.778Z,98538.88
2023-01-17T21:28:56.389Z,98537.53
2023-01-17T21:31:30.291Z,98542.69
2023-01-17T21:34:01.659Z,98543.28
2023-01-17T21:36:36.333Z,98538.28
2023-01-17T21:39:07.854Z,98538.63
2023-01-17T21:41:39.309Z,98544.69
2023-01-17T21:44:21.076Z,98539.56
2023-01-17T21:46:54.244Z,98549.66
2023-01-17T21:49:23.498Z,98548.44
2023-01-17T21:51:53.524Z,98559.41
2023-01-17T21:54:41.095Z,98562.53
2023-01-17T21:57:28.074Z,98566.91
2023-01-17T21:59:55.421Z,98575.16
2023-01-17T22:02:22.744Z,98587.84
2023-01-17T22:04:50.161Z,98582.53
2023-01-17T22:07:17.446Z,98583.97
2023-01-17T22:09:44.658Z,98594.44
2023-01-17T22:12:11.817Z,98601.50
2023-01-17T22:14:39.421Z,98601.97
2023-01-17T22:17:06.659Z,98608.16
2023-01-17T22:19:33.915Z,98608.84
2023-01-17T22:22:01.174Z,98602.94
2023-01-17T22:24:28.307Z,98604.16
2023-01-17T22:26:55.458Z,98597.97
2023-01-17T22:29:22.860Z,98601.00
2023-01-17T22:31:50.055Z,98598.97
2023-01-17T22:34:18.776Z,98603.69
2023-01-17T22:36:46.204Z,98610.22
2023-01-17T22:39:13.574Z,98610.53
2023-01-17T22:41:41.059Z,98609.13
2023-01-17T22:44:08.474Z,98609.88
2023-01-17T22:46:38.320Z,98614.28
2023-01-17T22:49:08.237Z,98621.44
2023-01-17T22:51:35.784Z,98626.41
2023-01-17T22:54:02.994Z,98630.81
2023-01-17T22:56:32.800Z,98647.97
2023-01-17T22:59:01.482Z,98641.53
2023-01-17T23:01:32.667Z,98649.00
2023-01-17T23:04:04.176Z,98640.91
2023-01-17T23:06:40.161Z,98630.00
2023-01-17T23:09:12.360Z,98632.41
2023-01-17T23:11:43.196Z,98628.63
2023-01-17T23:14:29.747Z,98640.75
2023-01-17T23:17:19.405Z,98647.13
2023-01-17T23:19:52.420Z,98641.75
2023-01-17T23:22:26.886Z,98642.00
2023-01-17T23:24:56.895Z,98642.13
2023-01-17T23:27:48.572Z,98641.06
2023-01-17T23:30:23.480Z,98647.53
2023-01-17T23:32:55.223Z,98644.91
2023-01-17T23:35:26.573Z,98648.75
2023-01-17T23:38:12.983Z,98652.22
2023-01-17T23:40:40.853Z,98647.38
2023-01-17T23:43:23.179Z,98636.88
2023-01-17T23:45:53.108Z,98637.34
2023-01-17T23:48:23.544Z,98633.63
2023-01-17T23:50:50.954Z,98625.34
2023-01-17T23:53:22.212Z,98625.09
2023-01-17T23:55:53.358Z,98623.75
2023-01-17T23:58:25.237Z,98622.00
